Time;durP1;ratioP1;P1;durP2;ratioP2;P2;SDS_P1;SDS_P2;PMS_P1;PMS_P2;Temp;Humidity;BMP_temperature;BMP_pressure;BME280_temperature;BME280_humidity;BME280_pressure;Samples;Min_cycle;Max_cycle;Signal;HPM_P1;HPM_P2
2022/06/09 00:01:46;;;;;;;7.47;4.60;;;15.80;99.90;;;;;;5067839;28;20471;-81
2022/06/09 00:04:16;;;;;;;13.00;5.00;;;15.70;99.90;;;;;;5067751;28;20529;-81
2022/06/09 00:06:46;;;;;;;11.30;4.33;;;15.60;99.90;;;;;;5067867;28;20458;-81
2022/06/09 00:09:13;;;;;;;8.57;3.70;;;15.60;99.90;;;;;;5069648;28;20493;-80
2022/06/09 00:11:45;;;;;;;7.70;3.77;;;15.50;99.90;;;;;;5063321;28;20458;-81
2022/06/09 00:14:14;;;;;;;4.93;3.07;;;15.60;99.90;;;;;;5074945;28;20477;-82
2022/06/09 00:16:41;;;;;;;6.43;4.57;;;15.60;99.90;;;;;;5076357;28;20488;-82
2022/06/09 00:19:08;;;;;;;9.27;4.10;;;15.50;99.90;;;;;;5077122;28;20479;-81
2022/06/09 00:21:36;;;;;;;10.57;3.70;;;15.50;99.90;;;;;;5076626;28;20486;-81
2022/06/09 00:24:03;;;;;;;6.80;3.77;;;15.40;99.90;;;;;;5076889;28;21009;-81
2022/06/09 00:26:31;;;;;;;8.90;3.80;;;15.40;99.90;;;;;;5076169;28;20541;-81
2022/06/09 00:29:00;;;;;;;9.80;3.47;;;15.40;99.90;;;;;;5075938;28;20506;-81
2022/06/09 00:31:29;;;;;;;9.20;5.20;;;15.40;99.90;;;;;;5076396;28;20512;-81
2022/06/09 00:33:56;;;;;;;9.43;4.57;;;15.40;99.90;;;;;;5076546;28;20549;-82
2022/06/09 00:36:22;;;;;;;6.27;3.67;;;15.40;99.90;;;;;;5076751;28;20573;-82
2022/06/09 00:38:49;;;;;;;13.90;5.43;;;15.40;99.90;;;;;;5076961;28;20545;-81
2022/06/09 00:41:17;;;;;;;9.63;3.90;;;15.30;99.90;;;;;;5077193;28;20482;-81
2022/06/09 00:43:44;;;;;;;5.00;3.10;;;15.30;99.90;;;;;;5077436;28;20518;-82
2022/06/09 00:46:16;;;;;;;8.50;3.80;;;15.30;99.90;;;;;;5077501;28;20504;-82
2022/06/09 00:48:49;;;;;;;12.23;4.43;;;15.30;99.90;;;;;;5076710;28;20992;-83
2022/06/09 00:51:26;;;;;;;7.23;3.60;;;15.30;99.90;;;;;;5077846;28;20455;-82
2022/06/09 00:53:56;;;;;;;12.77;4.70;;;15.40;99.90;;;;;;5076637;28;20480;-81
2022/06/09 00:56:23;;;;;;;7.20;4.50;;;15.30;99.90;;;;;;5078103;28;20609;-82
2022/06/09 00:58:53;;;;;;;6.77;3.07;;;15.40;99.90;;;;;;5077587;28;20550;-81
2022/06/09 01:01:21;;;;;;;9.97;3.67;;;15.40;99.90;;;;;;5077757;28;20450;-81
2022/06/09 01:03:55;;;;;;;5.47;3.70;;;15.40;99.90;;;;;;5076756;28;20537;-82
2022/06/09 01:06:25;;;;;;;5.40;3.53;;;15.40;99.90;;;;;;5076676;28;20450;-81
2022/06/09 01:08:58;;;;;;;8.07;3.43;;;15.40;99.90;;;;;;5076319;28;20514;-80
2022/06/09 01:11:25;;;;;;;7.67;3.87;;;15.40;99.90;;;;;;5077628;28;20458;-81
2022/06/09 01:13:52;;;;;;;7.50;3.10;;;15.40;99.90;;;;;;5077054;28;20571;-81
2022/06/09 01:16:25;;;;;;;8.33;3.53;;;15.50;99.90;;;;;;5077590;28;21130;-82
2022/06/09 01:19:04;;;;;;;9.83;3.60;;;15.50;99.90;;;;;;5076663;28;20480;-80
2022/06/09 01:21:58;;;;;;;6.50;2.90;;;15.50;99.90;;;;;;5076860;28;20846;-81
2022/06/09 01:24:47;;;;;;;5.80;3.37;;;15.50;99.90;;;;;;5075985;28;20441;-80
2022/06/09 01:27:31;;;;;;;6.00;3.10;;;15.50;99.90;;;;;;5076144;28;20466;-81
2022/06/09 01:30:09;;;;;;;7.20;3.30;;;15.50;99.90;;;;;;5076136;28;20459;-81
2022/06/09 01:32:41;;;;;;;7.00;3.13;;;15.50;99.90;;;;;;5075958;28;20482;-82
2022/06/09 01:35:18;;;;;;;7.70;3.10;;;15.50;99.90;;;;;;5075411;28;20455;-81
2022/06/09 01:37:48;;;;;;;10.13;3.60;;;15.50;99.90;;;;;;5075664;28;21000;-81
2022/06/09 01:40:17;;;;;;;7.50;3.03;;;15.60;99.90;;;;;;5076227;28;20538;-82
2022/06/09 01:42:46;;;;;;;5.13;2.17;;;15.70;99.90;;;;;;5075867;28;20443;-82
2022/06/09 01:45:16;;;;;;;8.30;2.23;;;15.70;99.90;;;;;;5075702;28;20456;-81
2022/06/09 01:47:49;;;;;;;7.70;3.00;;;15.60;99.90;;;;;;5075446;28;20506;-80
2022/06/09 01:50:24;;;;;;;10.17;2.57;;;15.70;99.90;;;;;;5075440;28;20529;-80
2022/06/09 01:52:52;;;;;;;4.53;2.37;;;15.60;99.90;;;;;;5075538;28;20479;-81
2022/06/09 01:55:23;;;;;;;6.53;2.80;;;15.70;99.90;;;;;;5075177;28;20573;-81
2022/06/09 01:57:57;;;;;;;8.43;2.90;;;15.60;99.90;;;;;;5075864;28;20479;-81
2022/06/09 02:00:25;;;;;;;6.97;2.67;;;15.60;99.90;;;;;;5075872;28;20473;-80
2022/06/09 02:02:58;;;;;;;14.40;3.40;;;15.60;99.90;;;;;;5074076;28;20542;-80
2022/06/09 02:05:28;;;;;;;6.60;2.57;;;15.60;99.90;;;;;;5070915;28;20476;-81
2022/06/09 02:07:56;;;;;;;6.80;2.70;;;15.50;99.90;;;;;;5068488;28;20575;-81
2022/06/09 02:10:33;;;;;;;6.40;2.53;;;15.40;99.90;;;;;;5064307;28;20480;-82
2022/06/09 02:13:04;;;;;;;7.27;2.10;;;15.40;99.90;;;;;;5054561;28;20480;-82
2022/06/09 02:15:36;;;;;;;9.70;2.70;;;15.50;99.90;;;;;;5055010;28;20508;-81
2022/06/09 02:18:11;;;;;;;5.57;2.10;;;15.50;99.90;;;;;;5055208;28;20539;-81
2022/06/09 02:20:42;;;;;;;6.10;2.63;;;15.50;99.90;;;;;;5055838;28;20516;-80
2022/06/09 02:23:11;;;;;;;6.10;2.30;;;15.50;99.90;;;;;;5069945;28;20456;-82
2022/06/09 02:25:38;;;;;;;6.23;2.13;;;15.50;99.90;;;;;;5075683;28;20808;-83
2022/06/09 02:28:06;;;;;;;8.00;2.67;;;15.50;99.90;;;;;;5074742;28;20478;-81
2022/06/09 02:30:34;;;;;;;4.50;2.50;;;15.60;99.90;;;;;;5075364;28;21021;-80
2022/06/09 02:33:01;;;;;;;8.70;2.50;;;15.50;99.90;;;;;;5076009;28;20522;-80
2022/06/09 02:35:29;;;;;;;7.33;2.63;;;15.40;99.90;;;;;;5074201;28;20527;-81
2022/06/09 02:37:56;;;;;;;4.43;1.93;;;15.50;99.90;;;;;;5075230;28;20479;-80
2022/06/09 02:40:23;;;;;;;9.10;2.83;;;15.50;99.90;;;;;;5074718;28;21085;-81
2022/06/09 02:42:50;;;;;;;11.10;3.67;;;15.40;99.90;;;;;;5074577;28;20453;-81
2022/06/09 02:45:17;;;;;;;5.77;2.07;;;15.40;99.90;;;;;;5074720;28;20548;-80
2022/06/09 02:47:44;;;;;;;8.13;2.60;;;15.40;99.90;;;;;;5075257;28;20481;-81
2022/06/09 02:50:12;;;;;;;7.73;3.03;;;15.40;99.90;;;;;;5074842;28;20467;-81
2022/06/09 02:52:41;;;;;;;9.50;3.13;;;15.40;99.90;;;;;;5074946;28;20492;-81
2022/06/09 02:55:09;;;;;;;13.00;2.87;;;15.40;99.90;;;;;;5079477;28;20455;-81
2022/06/09 02:57:36;;;;;;;5.70;2.10;;;15.40;99.90;;;;;;5078721;28;20495;-80
2022/06/09 03:00:06;;;;;;;9.23;2.83;;;15.40;99.90;;;;;;5059762;28;20447;-81
2022/06/09 03:02:33;;;;;;;4.93;2.63;;;15.40;99.90;;;;;;5058639;28;20449;-79
2022/06/09 03:05:01;;;;;;;8.87;3.00;;;15.50;99.90;;;;;;5060486;28;20884;-81
2022/06/09 03:07:27;;;;;;;6.20;3.10;;;15.40;99.90;;;;;;5059754;28;20562;-80
2022/06/09 03:09:56;;;;;;;13.60;3.53;;;15.50;99.90;;;;;;5059698;28;20447;-80
2022/06/09 03:12:23;;;;;;;5.33;2.77;;;15.40;99.90;;;;;;5059889;28;20443;-82
2022/06/09 03:14:49;;;;;;;5.87;2.70;;;15.40;99.90;;;;;;5058934;28;20530;-81
2022/06/09 03:17:16;;;;;;;7.40;3.07;;;15.40;99.90;;;;;;5059381;28;20490;-81
2022/06/09 03:19:43;;;;;;;8.73;3.20;;;15.40;99.90;;;;;;5059954;28;20538;-81
2022/06/09 03:22:10;;;;;;;7.23;2.90;;;15.40;99.90;;;;;;5059023;28;20534;-81
2022/06/09 03:24:37;;;;;;;9.40;3.33;;;15.40;99.90;;;;;;5059677;28;20532;-81
2022/06/09 03:27:05;;;;;;;9.23;3.20;;;15.40;99.90;;;;;;5059860;28;20498;-81
2022/06/09 03:29:32;;;;;;;11.03;3.23;;;15.30;99.90;;;;;;5061982;28;20544;-80
2022/06/09 03:31:59;;;;;;;9.77;4.47;;;15.40;99.90;;;;;;5060675;28;20468;-81
2022/06/09 03:34:26;;;;;;;10.10;3.73;;;15.40;99.90;;;;;;5058222;28;20456;-82
2022/06/09 03:36:53;;;;;;;13.77;4.40;;;15.40;99.90;;;;;;5059830;28;20542;-82
2022/06/09 03:39:20;;;;;;;10.90;4.83;;;15.20;99.90;;;;;;5060263;28;21085;-81
2022/06/09 03:41:47;;;;;;;6.87;4.90;;;15.00;99.90;;;;;;5059774;28;20498;-81
2022/06/09 03:44:15;;;;;;;12.67;5.90;;;15.10;99.90;;;;;;5060677;28;20826;-81
2022/06/09 03:46:42;;;;;;;9.63;4.60;;;15.10;99.90;;;;;;5060462;28;20558;-81
2022/06/09 03:49:09;;;;;;;18.57;6.23;;;15.10;99.90;;;;;;5059987;28;20559;-81
2022/06/09 03:51:35;;;;;;;10.57;5.83;;;15.10;99.90;;;;;;5060221;28;20457;-81
2022/06/09 03:54:02;;;;;;;12.87;5.13;;;15.00;99.90;;;;;;5060926;28;20451;-80
2022/06/09 03:56:29;;;;;;;14.63;5.43;;;15.00;99.90;;;;;;5061501;28;20474;-79
2022/06/09 03:58:56;;;;;;;12.63;5.20;;;15.00;99.90;;;;;;5070224;28;20471;-81
2022/06/09 04:01:25;;;;;;;18.20;6.30;;;15.00;99.90;;;;;;5078572;28;20959;-81
2022/06/09 04:03:51;;;;;;;15.83;5.70;;;15.00;99.90;;;;;;5076164;28;20970;-80
2022/06/09 04:06:26;;;;;;;10.17;5.00;;;15.10;99.90;;;;;;5076435;28;20971;-78
2022/06/09 04:08:53;;;;;;;12.47;5.70;;;15.00;99.90;;;;;;5075476;28;20493;-79
2022/06/09 04:11:22;;;;;;;12.07;5.67;;;15.20;99.90;;;;;;5076200;28;20538;-80
2022/06/09 04:13:50;;;;;;;14.47;6.60;;;15.20;99.90;;;;;;5075930;28;20536;-79
2022/06/09 04:16:23;;;;;;;13.50;6.73;;;15.20;99.90;;;;;;5154810;22;20551;-83
2022/06/09 04:18:51;;;;;;;14.80;7.80;;;15.20;99.90;;;;;;5126381;28;20444;-83
2022/06/09 04:21:19;;;;;;;18.97;9.53;;;15.20;99.90;;;;;;5120051;28;20469;-83
2022/06/09 04:23:46;;;;;;;19.10;11.67;;;15.20;99.90;;;;;;5110130;28;20817;-83
2022/06/09 04:26:17;;;;;;;12.57;8.40;;;15.30;99.90;;;;;;5100180;28;20459;-84
2022/06/09 04:28:44;;;;;;;19.23;9.40;;;15.40;99.90;;;;;;5090743;28;21122;-83
2022/06/09 04:31:11;;;;;;;18.80;8.83;;;15.40;99.90;;;;;;5105610;28;20478;-82
2022/06/09 04:33:38;;;;;;;14.23;7.97;;;15.30;99.90;;;;;;5102873;28;20447;-82
2022/06/09 04:36:08;;;;;;;16.57;8.57;;;15.40;99.90;;;;;;5100384;28;20465;-83
2022/06/09 04:38:36;;;;;;;17.70;9.23;;;15.50;99.90;;;;;;5091138;28;20819;-83
2022/06/09 04:41:04;;;;;;;20.07;10.30;;;15.50;99.90;;;;;;5089469;28;20453;-82
2022/06/09 04:43:31;;;;;;;18.80;9.47;;;15.40;99.90;;;;;;5091202;28;20481;-82
2022/06/09 04:45:58;;;;;;;14.97;9.23;;;15.50;99.90;;;;;;5090990;28;20462;-81
2022/06/09 04:48:25;;;;;;;16.20;9.90;;;15.50;99.90;;;;;;5102243;28;20822;-81
2022/06/09 04:50:51;;;;;;;14.63;9.30;;;15.50;99.90;;;;;;5111031;28;20892;-82
2022/06/09 04:53:21;;;;;;;17.07;11.90;;;15.60;99.90;;;;;;5111314;28;20439;-82
2022/06/09 04:55:48;;;;;;;19.43;11.80;;;15.60;99.90;;;;;;5110858;28;20923;-82
2022/06/09 04:58:15;;;;;;;21.73;11.97;;;15.50;99.90;;;;;;5111554;28;20514;-81
2022/06/09 05:00:42;;;;;;;21.60;12.33;;;15.50;99.90;;;;;;5110722;28;20481;-81
2022/06/09 05:03:11;;;;;;;20.40;12.13;;;15.60;99.90;;;;;;5114168;28;20507;-82
2022/06/09 05:05:40;;;;;;;26.63;12.60;;;15.50;99.90;;;;;;5114127;28;20470;-81
2022/06/09 05:08:08;;;;;;;20.00;11.90;;;15.40;99.90;;;;;;5113603;28;20473;-82
2022/06/09 05:10:36;;;;;;;31.97;13.03;;;15.50;99.90;;;;;;5114023;28;20450;-80
2022/06/09 05:13:06;;;;;;;22.30;13.13;;;15.50;99.90;;;;;;5111990;28;20484;-82
2022/06/09 05:15:36;;;;;;;18.23;12.77;;;15.50;99.90;;;;;;5107977;28;20490;-82
2022/06/09 05:18:04;;;;;;;21.67;12.73;;;15.50;99.90;;;;;;5109114;28;20482;-82
2022/06/09 05:20:31;;;;;;;21.23;12.40;;;15.50;99.90;;;;;;5109625;28;20513;-82
2022/06/09 05:22:58;;;;;;;27.50;13.80;;;15.50;99.90;;;;;;5109428;28;20478;-81
2022/06/09 05:25:25;;;;;;;19.80;12.20;;;15.50;99.90;;;;;;5094351;28;20470;-81
2022/06/09 05:27:53;;;;;;;17.33;12.83;;;15.50;99.90;;;;;;5089433;28;20475;-82
2022/06/09 05:30:22;;;;;;;21.40;14.33;;;15.50;99.90;;;;;;5089717;28;20474;-82
2022/06/09 05:32:50;;;;;;;19.30;12.20;;;15.60;99.90;;;;;;5088580;28;20459;-82
2022/06/09 05:35:21;;;;;;;22.40;13.43;;;15.60;99.90;;;;;;5088949;28;20503;-83
2022/06/09 05:46:06;;;;;;;24.83;14.17;;;15.80;99.90;;;;;;5088640;28;20479;-83
2022/06/09 05:48:33;;;;;;;15.83;13.60;;;15.90;99.90;;;;;;5088751;28;20961;-83
2022/06/09 05:51:01;;;;;;;20.10;12.60;;;16.00;99.90;;;;;;5085767;28;20453;-83
2022/06/09 05:53:28;;;;;;;17.53;12.13;;;16.00;99.90;;;;;;5085252;28;20457;-82
2022/06/09 05:55:55;;;;;;;22.70;12.90;;;16.00;99.90;;;;;;5085626;28;21153;-82
2022/06/09 05:58:24;;;;;;;17.50;13.87;;;16.10;99.90;;;;;;5084724;28;20613;-83
2022/06/09 06:00:51;;;;;;;23.20;13.27;;;16.20;99.90;;;;;;5084686;28;20460;-82
2022/06/09 06:03:18;;;;;;;17.73;12.47;;;16.20;99.90;;;;;;5085827;28;20488;-83
2022/06/09 06:08:29;;;;;;;27.80;13.83;;;16.30;99.90;;;;;;5084118;28;20425;-83
2022/06/09 06:10:57;;;;;;;17.03;11.10;;;16.30;99.90;;;;;;5084740;28;20463;-83
2022/06/09 06:13:26;;;;;;;17.97;13.00;;;16.30;99.90;;;;;;5084494;28;20830;-83
2022/06/09 06:15:53;;;;;;;24.13;14.43;;;16.40;99.90;;;;;;5084066;28;20474;-83
2022/06/09 06:18:20;;;;;;;20.43;12.70;;;16.40;99.90;;;;;;5084409;28;20528;-82
2022/06/09 06:20:46;;;;;;;15.90;13.57;;;16.50;99.90;;;;;;5083857;28;20479;-82
2022/06/09 06:23:14;;;;;;;18.33;13.40;;;16.60;99.90;;;;;;5083576;28;20497;-83
2022/06/09 06:25:41;;;;;;;24.47;14.23;;;16.80;99.90;;;;;;5083597;28;20478;-82
2022/06/09 06:28:08;;;;;;;19.80;15.23;;;16.90;99.90;;;;;;5082832;28;20439;-82
2022/06/09 06:30:36;;;;;;;22.77;14.67;;;16.90;99.90;;;;;;5082893;28;20478;-83
2022/06/09 06:33:03;;;;;;;24.43;15.63;;;16.90;99.90;;;;;;5082930;28;20491;-83
2022/06/09 06:35:30;;;;;;;24.00;15.90;;;16.90;99.90;;;;;;5082074;28;20479;-83
2022/06/09 06:37:57;;;;;;;18.53;15.03;;;16.70;99.90;;;;;;5082880;28;20518;-84
2022/06/09 06:40:23;;;;;;;21.33;14.80;;;16.60;99.90;;;;;;5082548;28;20474;-83
2022/06/09 06:42:50;;;;;;;20.63;15.53;;;16.70;99.90;;;;;;5079134;28;20492;-83
2022/06/09 06:45:17;;;;;;;19.80;13.97;;;16.70;99.90;;;;;;5081638;28;20478;-83
2022/06/09 06:47:46;;;;;;;19.20;14.27;;;16.80;99.90;;;;;;5081858;28;20445;-83
2022/06/09 06:50:14;;;;;;;15.70;12.50;;;16.80;99.90;;;;;;5081771;28;20454;-84
2022/06/09 06:52:42;;;;;;;19.13;14.97;;;17.00;99.90;;;;;;5081398;28;20459;-84
2022/06/09 06:55:13;;;;;;;21.93;15.23;;;17.10;99.90;;;;;;5082175;28;20458;-84
2022/06/09 06:57:40;;;;;;;23.33;15.90;;;17.30;99.90;;;;;;5082785;28;20570;-83
2022/06/09 07:00:10;;;;;;;19.27;14.37;;;17.40;99.90;;;;;;5082910;28;20450;-84
2022/06/09 07:02:36;;;;;;;25.50;18.27;;;17.50;99.90;;;;;;5089222;28;20458;-84
2022/06/09 07:05:08;;;;;;;22.67;17.37;;;17.70;99.90;;;;;;5102788;28;20480;-84
2022/06/09 07:07:34;;;;;;;34.10;21.20;;;17.70;99.90;;;;;;5104078;28;20491;-84
2022/06/09 07:10:03;;;;;;;24.40;19.27;;;17.80;99.90;;;;;;5102351;28;21026;-84
2022/06/09 07:12:30;;;;;;;25.93;18.00;;;17.60;99.90;;;;;;5102200;28;20852;-84
2022/06/09 07:14:57;;;;;;;27.17;17.67;;;17.60;99.90;;;;;;5103406;28;20485;-83
2022/06/09 07:17:25;;;;;;;24.57;19.00;;;17.40;99.90;;;;;;5101837;28;20524;-84
2022/06/09 07:19:52;;;;;;;29.63;20.70;;;17.30;99.90;;;;;;5102336;28;20484;-84
2022/06/09 07:22:21;;;;;;;25.40;22.20;;;17.20;99.90;;;;;;5102734;28;20487;-84
2022/06/09 07:24:49;;;;;;;31.20;22.87;;;17.00;99.90;;;;;;5102569;28;20461;-84
2022/06/09 07:27:16;;;;;;;25.47;21.30;;;17.00;99.90;;;;;;5102038;28;20454;-84
2022/06/09 07:29:43;;;;;;;29.20;23.73;;;16.90;99.90;;;;;;5103186;28;20496;-83
2022/06/09 07:32:10;;;;;;;40.77;27.00;;;16.80;99.90;;;;;;5102136;28;20480;-85
2022/06/09 07:34:37;;;;;;;37.40;23.60;;;16.80;99.90;;;;;;5102414;28;20470;-84
2022/06/09 07:37:04;;;;;;;28.57;22.90;;;16.80;99.90;;;;;;5101803;28;20506;-83
2022/06/09 07:39:33;;;;;;;31.20;23.50;;;16.80;99.90;;;;;;5102934;28;20477;-85
2022/06/09 07:42:00;;;;;;;33.83;23.20;;;16.90;99.90;;;;;;5104153;28;20487;-84
2022/06/09 07:44:27;;;;;;;24.03;19.87;;;16.80;99.90;;;;;;5106705;28;20476;-84
2022/06/09 07:46:54;;;;;;;37.43;26.37;;;16.90;99.90;;;;;;5105622;28;20475;-84
2022/06/09 07:49:20;;;;;;;30.73;25.00;;;17.00;99.90;;;;;;5105873;28;20492;-84
2022/06/09 07:51:47;;;;;;;32.03;24.50;;;17.00;99.90;;;;;;5106363;28;20491;-84
2022/06/09 07:54:15;;;;;;;31.27;25.40;;;17.20;99.90;;;;;;5105858;28;20473;-84
2022/06/09 07:56:43;;;;;;;24.27;21.00;;;17.30;99.90;;;;;;5106749;28;20535;-84
2022/06/09 07:59:11;;;;;;;28.10;23.37;;;17.30;99.90;;;;;;5106629;28;20543;-84
2022/06/09 08:01:38;;;;;;;32.70;24.30;;;17.30;99.90;;;;;;5108130;28;20456;-84
2022/06/09 08:04:05;;;;;;;28.20;22.37;;;17.40;99.90;;;;;;5108674;28;20451;-84
2022/06/09 08:06:33;;;;;;;30.83;22.50;;;17.30;99.90;;;;;;5109965;28;20493;-85
2022/06/09 08:09:01;;;;;;;26.50;20.53;;;17.20;99.90;;;;;;5109282;28;20473;-83
2022/06/09 08:11:33;;;;;;;27.60;20.00;;;17.20;99.90;;;;;;5110400;28;20436;-85
2022/06/09 08:14:03;;;;;;;25.70;18.40;;;17.30;99.90;;;;;;5107160;28;21895;-84
2022/06/09 08:16:31;;;;;;;24.63;18.20;;;17.40;99.90;;;;;;5107724;28;20473;-85
2022/06/09 08:18:59;;;;;;;21.20;18.07;;;17.30;99.90;;;;;;5107950;28;20493;-85
2022/06/09 08:21:27;;;;;;;21.83;19.13;;;17.30;99.90;;;;;;5105750;28;20862;-85
2022/06/09 08:23:54;;;;;;;21.20;16.93;;;17.40;99.90;;;;;;5107688;28;20437;-84
2022/06/09 08:26:21;;;;;;;21.03;18.27;;;17.60;99.90;;;;;;5107971;28;20473;-84
2022/06/09 08:28:48;;;;;;;29.30;21.10;;;17.90;99.90;;;;;;5091522;28;20450;-85
2022/06/09 08:31:16;;;;;;;22.30;18.00;;;18.00;99.90;;;;;;5096190;28;20465;-85
2022/06/09 08:33:44;;;;;;;25.23;21.13;;;18.10;99.90;;;;;;5097197;28;20536;-85
2022/06/09 08:36:11;;;;;;;23.03;17.87;;;18.30;99.90;;;;;;5103522;28;20476;-85
2022/06/09 08:38:38;;;;;;;27.63;17.37;;;18.50;99.90;;;;;;5103139;28;20517;-84
2022/06/09 08:41:17;;;;;;;23.40;18.03;;;18.60;99.90;;;;;;5100556;28;20460;-84
2022/06/09 08:43:48;;;;;;;21.50;17.90;;;18.80;99.90;;;;;;5102273;28;20453;-85
2022/06/09 08:46:26;;;;;;;23.23;16.20;;;18.90;99.90;;;;;;5102473;28;20484;-84
2022/06/09 08:48:56;;;;;;;21.70;16.67;;;19.50;99.90;;;;;;5104945;28;20473;-84
2022/06/09 08:51:33;;;;;;;17.40;15.30;;;19.80;99.90;;;;;;5102703;28;20448;-85
2022/06/09 08:54:06;;;;;;;21.10;15.87;;;20.10;99.90;;;;;;5103826;28;20470;-84
2022/06/09 08:56:33;;;;;;;19.53;16.07;;;20.30;99.90;;;;;;5103335;28;21012;-85
2022/06/09 08:59:04;;;;;;;22.43;15.93;;;20.30;99.90;;;;;;5104919;28;20569;-85
2022/06/09 09:01:39;;;;;;;21.30;17.40;;;20.10;99.90;;;;;;5100623;28;20482;-85
2022/06/09 09:04:16;;;;;;;18.87;16.80;;;19.90;99.90;;;;;;5097857;28;20460;-84
2022/06/09 09:06:47;;;;;;;18.63;15.33;;;19.80;99.90;;;;;;5102093;28;20473;-84
2022/06/09 09:09:17;;;;;;;17.90;16.10;;;20.10;99.90;;;;;;5101233;28;20957;-84
2022/06/09 09:11:56;;;;;;;19.77;16.60;;;20.40;99.90;;;;;;5090509;28;20474;-85
2022/06/09 09:14:29;;;;;;;17.37;14.03;;;20.70;99.90;;;;;;5083508;28;20461;-85
2022/06/09 09:17:08;;;;;;;18.00;15.23;;;21.00;99.90;;;;;;5084136;28;21207;-85
2022/06/09 09:19:51;;;;;;;16.20;13.87;;;21.10;99.90;;;;;;5084177;28;20486;-85
2022/06/09 09:22:25;;;;;;;19.07;16.40;;;21.10;99.90;;;;;;5085341;28;20478;-84
2022/06/09 09:25:03;;;;;;;18.27;16.40;;;21.10;99.90;;;;;;5083161;28;20455;-85
2022/06/09 09:27:36;;;;;;;18.03;14.93;;;21.10;99.90;;;;;;5081946;28;20489;-84
2022/06/09 09:30:12;;;;;;;17.87;15.80;;;21.10;99.90;;;;;;5083641;28;20569;-85
2022/06/09 09:32:43;;;;;;;21.17;16.97;;;21.20;99.90;;;;;;5083297;28;20550;-84
2022/06/09 09:35:14;;;;;;;17.47;15.23;;;21.70;99.90;;;;;;5084165;28;20470;-85
2022/06/09 09:37:46;;;;;;;16.73;14.90;;;22.10;99.90;;;;;;5083713;28;20487;-85
2022/06/09 09:40:21;;;;;;;19.93;14.93;;;22.00;99.90;;;;;;5082769;28;20462;-85
2022/06/09 09:42:49;;;;;;;15.30;13.70;;;22.10;99.90;;;;;;5087118;28;20453;-84
2022/06/09 09:45:19;;;;;;;19.40;15.20;;;22.10;99.90;;;;;;5083682;28;20539;-85
2022/06/09 09:47:54;;;;;;;15.87;12.50;;;22.30;99.90;;;;;;5084282;28;20475;-85
2022/06/09 09:50:29;;;;;;;11.97;10.63;;;21.90;99.90;;;;;;5084098;28;20473;-84
2022/06/09 09:53:00;;;;;;;14.60;12.50;;;22.20;99.90;;;;;;5082904;28;20893;-84
2022/06/09 09:55:37;;;;;;;12.00;10.83;;;21.90;99.90;;;;;;5083938;28;20481;-85
2022/06/09 09:58:27;;;;;;;12.73;11.43;;;21.70;99.90;;;;;;5083726;28;20489;-85
2022/06/09 10:00:57;;;;;;;13.97;10.80;;;21.50;99.90;;;;;;5083115;28;20463;-85
2022/06/09 10:09:15;;;;;;;13.77;12.10;;;22.90;99.90;;;;;;5082114;28;20938;-85
2022/06/09 10:11:55;;;;;;;15.63;12.10;;;22.60;99.90;;;;;;5082763;28;20466;-84
2022/06/09 10:14:51;;;;;;;14.13;11.17;;;22.30;99.90;;;;;;5083047;28;20467;-85
2022/06/09 10:17:31;;;;;;;12.77;9.60;;;22.70;99.90;;;;;;5119000;22;20501;-79
2022/06/09 10:20:07;;;;;;;10.83;9.00;;;22.80;99.90;;;;;;5117056;28;20461;-79
2022/06/09 10:22:37;;;;;;;11.40;8.87;;;22.60;99.90;;;;;;5116693;28;20948;-79
2022/06/09 10:25:17;;;;;;;14.63;10.67;;;22.10;99.90;;;;;;5116855;28;20543;-79
2022/06/09 10:27:48;;;;;;;14.53;9.53;;;21.70;99.90;;;;;;5116308;28;20468;-79
2022/06/09 10:30:21;;;;;;;12.40;8.67;;;21.40;99.90;;;;;;5116852;28;20429;-80
2022/06/09 10:32:54;;;;;;;8.43;7.60;;;21.10;99.90;;;;;;5115448;28;20468;-79
2022/06/09 10:35:30;;;;;;;14.33;7.50;;;21.10;99.90;;;;;;5115275;28;20845;-78
2022/06/09 10:38:01;;;;;;;11.20;8.10;;;21.10;99.90;;;;;;5116016;28;20576;-80
2022/06/09 10:40:37;;;;;;;12.13;8.27;;;21.10;99.90;;;;;;5115828;28;20481;-77
2022/06/09 10:43:09;;;;;;;14.70;9.50;;;21.10;99.90;;;;;;5115773;28;20472;-80
2022/06/09 10:45:44;;;;;;;12.83;8.80;;;21.30;99.90;;;;;;5116268;28;20514;-80
2022/06/09 10:57:07;;;;;;;8.43;5.27;;;22.40;99.90;;;;;;5118902;28;20579;-80
2022/06/09 10:59:40;;;;;;;8.03;4.67;;;22.60;99.90;;;;;;5115543;28;20515;-80
2022/06/09 11:02:14;;;;;;;8.30;4.80;;;23.00;99.90;;;;;;5115496;28;21111;-80
2022/06/09 11:04:41;;;;;;;7.17;5.47;;;23.70;99.90;;;;;;5116175;28;20536;-80
2022/06/09 11:07:30;;;;;;;5.30;4.03;;;23.90;99.90;;;;;;5116092;28;20461;-79
2022/06/09 11:10:08;;;;;;;9.93;4.90;;;23.90;99.90;;;;;;5115731;28;20532;-80
2022/06/09 11:12:47;;;;;;;8.17;4.87;;;23.90;99.90;;;;;;5115922;28;20472;-80
2022/06/09 11:15:27;;;;;;;5.10;4.17;;;24.20;99.90;;;;;;5119028;28;20852;-79
2022/06/09 11:18:07;;;;;;;8.53;3.90;;;24.20;99.90;;;;;;5119803;28;21091;-80
2022/06/09 11:20:47;;;;;;;6.93;4.40;;;23.60;99.90;;;;;;5120049;28;20635;-81
2022/06/09 11:23:28;;;;;;;9.53;4.97;;;23.10;99.90;;;;;;5120453;28;20952;-80
2022/06/09 11:26:03;;;;;;;8.63;5.77;;;22.90;99.90;;;;;;5119832;28;20472;-77
2022/06/09 11:28:44;;;;;;;7.57;5.10;;;22.80;99.90;;;;;;5120060;28;20433;-78
2022/06/09 11:31:41;;;;;;;5.30;3.67;;;22.50;99.90;;;;;;5119586;28;20512;-79
2022/06/09 11:34:29;;;;;;;3.67;2.53;;;22.70;99.90;;;;;;5111618;28;20886;-79
2022/06/09 11:37:04;;;;;;;6.73;2.10;;;23.20;99.90;;;;;;5119357;28;20503;-80
2022/06/09 11:39:43;;;;;;;2.63;1.30;;;23.60;99.90;;;;;;5117913;28;20488;-81
2022/06/09 11:42:20;;;;;;;3.87;1.63;;;23.90;99.90;;;;;;5118649;28;20553;-79
2022/06/09 11:44:51;;;;;;;4.03;1.67;;;23.80;99.90;;;;;;5118740;28;20443;-80
2022/06/09 11:47:20;;;;;;;5.27;1.90;;;23.90;99.90;;;;;;5118911;28;20484;-80
2022/06/09 11:49:50;;;;;;;2.30;1.37;;;23.70;99.90;;;;;;5118804;28;20970;-79
2022/06/09 11:52:21;;;;;;;4.13;1.40;;;23.70;99.90;;;;;;5119286;28;20463;-79
2022/06/09 11:55:08;;;;;;;3.53;1.20;;;23.30;99.90;;;;;;5119205;28;20520;-79
2022/06/09 11:57:47;;;;;;;3.00;1.80;;;23.60;99.90;;;;;;5119344;28;20544;-81
2022/06/09 12:00:40;;;;;;;2.53;1.33;;;23.70;99.90;;;;;;5119663;28;20524;-78
2022/06/09 12:03:37;;;;;;;4.63;1.40;;;23.50;99.90;;;;;;5118683;28;20445;-80
2022/06/09 12:06:14;;;;;;;4.23;2.53;;;23.50;99.90;;;;;;5118696;28;20517;-81
2022/06/09 12:08:56;;;;;;;6.80;3.10;;;23.40;99.90;;;;;;5118978;28;20523;-79
2022/06/09 12:11:26;;;;;;;11.13;3.67;;;23.00;99.90;;;;;;5119132;28;20449;-81
2022/06/09 12:14:03;;;;;;;5.63;2.77;;;22.70;99.90;;;;;;5118323;28;20564;-80
2022/06/09 12:16:34;;;;;;;2.77;1.40;;;22.30;99.90;;;;;;5118403;28;20472;-79
2022/06/09 12:19:16;;;;;;;3.43;1.30;;;21.70;99.90;;;;;;5119795;28;20545;-79
2022/06/09 12:21:45;;;;;;;3.37;1.20;;;21.20;99.90;;;;;;5119559;28;20445;-80
2022/06/09 12:24:31;;;;;;;3.63;1.40;;;20.70;99.90;;;;;;5121628;28;20537;-82
2022/06/09 12:27:39;;;;;;;3.13;1.00;;;20.40;99.90;;;;;;5119585;28;20491;-78
2022/06/09 12:30:25;;;;;;;2.87;1.03;;;20.00;99.90;;;;;;5119737;28;20445;-80
2022/06/09 12:32:56;;;;;;;2.63;1.10;;;19.70;99.90;;;;;;5118995;28;20452;-82
2022/06/09 12:35:29;;;;;;;4.43;1.30;;;19.30;99.90;;;;;;5119266;28;20494;-79
2022/06/09 12:38:17;;;;;;;3.10;1.30;;;19.10;99.90;;;;;;5118662;28;20503;-80
2022/06/09 12:40:50;;;;;;;2.70;1.50;;;18.90;99.90;;;;;;5116975;28;20470;-79
2022/06/09 12:43:26;;;;;;;4.43;2.03;;;18.50;99.90;;;;;;5117919;28;20483;-79
2022/06/09 12:46:03;;;;;;;3.17;1.50;;;18.20;99.90;;;;;;5118924;28;20448;-81
2022/06/09 12:48:33;;;;;;;3.93;1.70;;;18.20;99.90;;;;;;5119212;28;20474;-81
2022/06/09 12:51:02;;;;;;;3.90;1.63;;;18.30;99.90;;;;;;5118392;28;20454;-80
2022/06/09 12:53:34;;;;;;;3.83;2.13;;;18.20;99.90;;;;;;5117884;28;20452;-80
2022/06/09 12:56:08;;;;;;;3.00;1.73;;;18.10;99.90;;;;;;5118858;28;20455;-79
2022/06/09 12:58:42;;;;;;;4.50;1.70;;;17.90;99.90;;;;;;5118225;28;20433;-79
2022/06/09 13:01:15;;;;;;;3.23;1.27;;;18.10;99.90;;;;;;5117885;28;20488;-80
2022/06/09 13:03:43;;;;;;;2.57;1.30;;;18.00;99.90;;;;;;5117940;28;20477;-80
2022/06/09 13:06:21;;;;;;;2.10;1.40;;;18.00;99.90;;;;;;5118045;28;20494;-80
2022/06/09 13:08:51;;;;;;;4.33;1.50;;;17.90;99.90;;;;;;5118313;28;20535;-79
2022/06/09 13:12:50;;;;;;;3.83;1.23;;;17.80;99.90;;;;;;5118904;28;20456;-80
2022/06/09 13:14:11;;;;;;;2.43;1.50;;;18.00;99.90;;;;;;5117322;28;20813;-78
2022/06/09 13:16:43;;;;;;;2.80;1.50;;;18.00;99.90;;;;;;5116788;28;20517;-82
2022/06/09 13:19:14;;;;;;;4.90;2.00;;;18.10;99.90;;;;;;5118483;28;20483;-79
2022/06/09 13:21:44;;;;;;;2.77;1.40;;;18.10;99.90;;;;;;5118047;28;21048;-80
2022/06/09 13:24:16;;;;;;;2.60;1.20;;;18.30;99.90;;;;;;5117499;28;20450;-81